ROMMA est une association bénévole à but non lucratif. Votre soutien est indispensable : ADHERER à ROMMA ou FAIRE un DON

Crest - (26, Drôme)

Vallée de la Drôme (315 m)   Longitude: 5°2' E   Latitude: 44°44' N Station partenaire n°62
 

Détail journalier du     <<     >>

Température Precipitation Humidité Pression Vent Dir Rafale Dir. rafale Ensol.
Heure (°C) (mm) (%) (hPa) (km/h) (km/h) (min)
01:00 8.108410133SE11SE0
02:00 9.107610134SE15SE0
03:00 9.507310136SE13SE0
04:00 10.507010136SE15SE0
05:00 10.807510127SE18SE0
06:00 10.906910128SE29SE0
07:00 10.3077101211SE19SE0
08:00 9.6082101211SE23SE0
09:00 9.6083101214SE26SE0
10:00 11.2074101212SE23SE0
11:00 13.6057101318SE44SE0
12:00 12.7067101218SE35ESE0
13:00 13.3065101116SE34SE0
14:00 13.2071101119SE40SE0
15:00 13.1070101020SE39SE0
16:00 12.6072101016SE29SE0
17:00 12.1073100912SE24SE0
18:00 12.7064100814SSE34SSE0
19:00 12.9060100812SSE27SE0
20:00 13.7053100712SSE35SE0
21:00 15.7045100717SE48SE0
22:00 14.3051100720SE50SE0
23:00 11.0070100716SE37SE0
minuit 10.7069100716SE35SE0

Graphique du 16-12-2019

 

Serveur OMMA